createdAt,value
2022-10-20T00:00:59.885Z,98980.84
2022-10-20T00:02:01.590Z,98987.56
2022-10-20T00:03:03.458Z,98980.63
2022-10-20T00:04:05.261Z,98977.75
2022-10-20T00:05:07.503Z,98967.16
2022-10-20T00:06:16.237Z,98972.28
2022-10-20T00:07:17.959Z,98971.47
2022-10-20T00:08:20.461Z,98974.13
2022-10-20T00:09:22.186Z,98973.09
2022-10-20T00:10:23.881Z,98975.75
2022-10-20T00:11:28.086Z,98961.66
2022-10-20T00:12:29.861Z,98967.56
2022-10-20T00:13:31.738Z,98959.81
2022-10-20T00:14:33.493Z,98955.13
2022-10-20T00:15:35.439Z,98957.78
2022-10-20T00:16:39.789Z,98956.75
2022-10-20T00:17:41.535Z,98957.78
2022-10-20T00:18:44.648Z,98961.25
2022-10-20T00:19:49.591Z,98970.81
2022-10-20T00:20:52.417Z,98960.44
2022-10-20T00:21:54.871Z,98964.09
2022-10-20T00:22:56.563Z,98962.06
2022-10-20T00:24:03.145Z,98970.00
2022-10-20T00:25:05.507Z,98963.06
2022-10-20T00:26:15.469Z,98963.69
2022-10-20T00:27:17.156Z,98971.63
2022-10-20T00:28:18.832Z,98971.63
2022-10-20T00:29:20.586Z,98970.00
2022-10-20T00:30:23.782Z,98963.06
2022-10-20T00:31:27.776Z,98964.91
2022-10-20T00:32:32.312Z,98962.25
2022-10-20T00:33:35.430Z,98963.91
2022-10-20T00:34:37.147Z,98965.53
2022-10-20T00:35:39.438Z,98969.19
2022-10-20T00:36:41.221Z,98962.25
2022-10-20T00:37:42.937Z,98963.91
2022-10-20T00:38:45.143Z,98958.59
2022-10-20T00:39:46.859Z,98964.91
2022-10-20T00:40:48.606Z,98965.72
2022-10-20T00:41:50.314Z,98964.69
2022-10-20T00:42:52.077Z,98962.25
2022-10-20T00:44:23.939Z,98954.09
2022-10-20T00:45:26.338Z,98965.53
2022-10-20T00:46:40.331Z,98967.16
2022-10-20T00:48:04.712Z,98964.69
2022-10-20T00:49:25.712Z,98963.06
2022-10-20T00:50:41.706Z,98962.47
2022-10-20T00:51:44.727Z,98968.81
2022-10-20T00:52:48.356Z,98966.16
2022-10-20T00:53:53.502Z,98966.34
2022-10-20T00:54:55.248Z,98964.72
2022-10-20T00:56:00.348Z,98958.38
2022-10-20T00:58:09.783Z,98951.66
2022-10-20T00:59:18.296Z,98950.63
2022-10-20T01:00:20.463Z,98945.53
2022-10-20T01:01:22.207Z,98938.41
2022-10-20T01:02:24.099Z,98941.25
2022-10-20T01:03:48.730Z,98940.22
2022-10-20T01:04:51.709Z,98941.25
2022-10-20T01:05:53.439Z,98929.22
2022-10-20T01:06:56.593Z,98937.78
2022-10-20T01:07:58.360Z,98932.50
2022-10-20T01:09:00.861Z,98936.38
2022-10-20T01:10:07.021Z,98921.06
2022-10-20T01:11:46.072Z,98924.31
2022-10-20T01:13:24.701Z,98919.00
2022-10-20T01:15:09.151Z,98919.22
2022-10-20T01:16:23.513Z,98914.56
2022-10-20T01:17:42.461Z,98911.69
2022-10-20T01:19:17.329Z,98912.50
2022-10-20T01:21:04.541Z,98912.50
2022-10-20T01:23:04.203Z,98914.56
2022-10-20T01:24:23.992Z,98908.84
2022-10-20T01:25:49.980Z,98903.53
2022-10-20T01:27:10.291Z,98903.94
2022-10-20T01:28:54.863Z,98907.63
2022-10-20T01:30:18.676Z,98911.31
2022-10-20T01:32:18.498Z,98907.22
2022-10-20T01:34:16.364Z,98907.38
2022-10-20T01:35:42.082Z,98908.84
2022-10-20T01:36:54.667Z,98902.94
2022-10-20T01:38:03.717Z,98897.22
2022-10-20T01:39:17.439Z,98899.84
2022-10-20T01:40:29.402Z,98900.88
2022-10-20T01:41:45.232Z,98904.34
2022-10-20T01:42:52.723Z,98894.16
2022-10-20T01:43:56.310Z,98898.88
2022-10-20T01:45:03.992Z,98900.50
2022-10-20T01:46:09.206Z,98899.88
2022-10-20T01:47:14.431Z,98892.75
2022-10-20T01:48:22.452Z,98892.16
2022-10-20T01:49:26.155Z,98888.03
2022-10-20T01:50:29.352Z,98884.41
2022-10-20T01:51:32.638Z,98889.88
2022-10-20T01:52:34.636Z,98896.22
2022-10-20T01:53:37.243Z,98894.59
2022-10-20T01:54:39.618Z,98892.94
2022-10-20T01:55:42.214Z,98889.50
2022-10-20T01:57:02.030Z,98895.59
2022-10-20T01:58:29.721Z,98884.19
2022-10-20T02:00:09.074Z,98882.78
2022-10-20T02:01:55.544Z,98872.38
2022-10-20T02:03:28.028Z,98877.25
2022-10-20T02:05:07.471Z,98879.31
2022-10-20T02:06:27.474Z,98883.78
2022-10-20T02:07:32.926Z,98875.66
2022-10-20T02:08:47.862Z,98867.72
2022-10-20T02:10:00.493Z,98870.56
2022-10-20T02:11:06.427Z,98867.09
2022-10-20T02:12:16.395Z,98865.44
2022-10-20T02:13:21.165Z,98861.16
2022-10-20T02:14:23.851Z,98863.44
2022-10-20T02:15:30.002Z,98849.75
2022-10-20T02:16:49.706Z,98859.53
2022-10-20T02:18:01.489Z,98849.97
2022-10-20T02:19:07.598Z,98854.66
2022-10-20T02:20:11.416Z,98864.66
2022-10-20T02:21:13.371Z,98866.50
2022-10-20T02:22:16.767Z,98873.41
2022-10-20T02:23:19.031Z,98866.69
2022-10-20T02:24:27.050Z,98864.66
2022-10-20T02:25:31.218Z,98867.53
2022-10-20T02:26:36.481Z,98867.53
2022-10-20T02:27:43.576Z,98862.22
2022-10-20T02:28:53.171Z,98860.59
2022-10-20T02:30:11.187Z,98858.75
2022-10-20T02:31:13.358Z,98845.91
2022-10-20T02:32:17.257Z,98840.00
2022-10-20T02:33:20.433Z,98840.00
2022-10-20T02:34:27.004Z,98832.84
2022-10-20T02:35:34.734Z,98830.22
2022-10-20T02:36:41.663Z,98825.94
2022-10-20T02:37:43.599Z,98834.91
2022-10-20T02:38:45.988Z,98838.38
2022-10-20T02:39:47.673Z,98846.72
2022-10-20T02:40:49.469Z,98836.13
2022-10-20T02:41:51.844Z,98840.63
2022-10-20T02:42:53.896Z,98831.84
2022-10-20T02:43:55.582Z,98837.97
2022-10-20T02:44:57.299Z,98844.09
2022-10-20T02:45:59.004Z,98831.84
2022-10-20T02:47:00.791Z,98843.06
2022-10-20T02:48:04.205Z,98837.75
2022-10-20T02:49:08.106Z,98836.75
2022-10-20T02:50:10.409Z,98842.25
2022-10-20T02:51:13.199Z,98841.22
2022-10-20T02:52:15.571Z,98839.59
2022-10-20T02:53:17.286Z,98830.84
2022-10-20T02:54:19.350Z,98831.66
2022-10-20T02:55:21.115Z,98827.38
2022-10-20T02:56:25.402Z,98832.69
2022-10-20T02:57:29.369Z,98840.81
2022-10-20T02:58:31.048Z,98837.34
2022-10-20T02:59:33.319Z,98852.25
2022-10-20T03:00:35.100Z,98843.47
2022-10-20T03:01:36.840Z,98851.44
2022-10-20T03:02:38.675Z,98850.59
2022-10-20T03:03:40.415Z,98846.31
2022-10-20T03:04:42.233Z,98850.59
2022-10-20T03:05:44.503Z,98847.94
2022-10-20T03:06:46.812Z,98844.47
2022-10-20T03:07:48.553Z,98839.16
2022-10-20T03:08:50.288Z,98837.16
2022-10-20T03:09:52.032Z,98839.00
2022-10-20T03:10:53.719Z,98840.41
2022-10-20T03:11:55.444Z,98841.22
2022-10-20T03:12:57.142Z,98835.94
2022-10-20T03:13:58.980Z,98835.94
2022-10-20T03:15:00.685Z,98846.31
2022-10-20T03:16:02.783Z,98838.38
2022-10-20T03:17:04.543Z,98841.00
2022-10-20T03:18:06.256Z,98840.81
2022-10-20T03:19:11.332Z,98839.78
2022-10-20T03:20:13.542Z,98841.63
2022-10-20T03:21:15.313Z,98836.31
2022-10-20T03:22:17.051Z,98835.50
2022-10-20T03:23:20.195Z,98837.13
2022-10-20T03:24:22.040Z,98828.59
2022-10-20T03:25:23.731Z,98837.13
2022-10-20T03:26:25.547Z,98828.59
2022-10-20T03:27:27.287Z,98835.50
2022-10-20T03:28:29.140Z,98832.66
2022-10-20T03:29:30.883Z,98824.91
2022-10-20T03:30:32.581Z,98826.75
2022-10-20T03:31:34.366Z,98831.03
2022-10-20T03:32:36.478Z,98832.66
2022-10-20T03:33:38.435Z,98834.47
2022-10-20T03:34:40.154Z,98830.22
2022-10-20T03:35:41.837Z,98837.13
2022-10-20T03:36:43.566Z,98836.31
2022-10-20T03:37:45.273Z,98837.94
2022-10-20T03:38:47.025Z,98835.28
2022-10-20T03:39:48.773Z,98832.66
2022-10-20T03:40:51.490Z,98837.13
2022-10-20T03:41:54.383Z,98837.13
2022-10-20T03:42:56.100Z,98830.00
2022-10-20T03:43:57.869Z,98831.63
2022-10-20T03:44:59.580Z,98827.56
2022-10-20T03:46:05.110Z,98834.47
2022-10-20T03:47:07.390Z,98825.94
2022-10-20T03:48:10.999Z,98830.00
2022-10-20T03:49:12.801Z,98825.72
2022-10-20T03:50:14.559Z,98829.19
2022-10-20T03:51:16.764Z,98822.25
2022-10-20T03:52:18.488Z,98821.44
2022-10-20T03:53:20.187Z,98818.81
2022-10-20T03:54:21.900Z,98822.25
2022-10-20T03:55:23.596Z,98827.56
2022-10-20T03:56:25.337Z,98818.81
2022-10-20T03:57:27.040Z,98817.16
2022-10-20T03:58:28.784Z,98817.16
2022-10-20T03:59:30.663Z,98808.41
2022-10-20T04:00:32.565Z,98812.91
2022-10-20T04:01:35.392Z,98806.78
2022-10-20T04:02:45.650Z,98803.94
2022-10-20T04:03:47.499Z,98810.25
2022-10-20T04:04:49.262Z,98808.63
2022-10-20T04:05:50.989Z,98798.03
2022-10-20T04:06:52.678Z,98787.63
2022-10-20T04:07:54.430Z,98782.34
2022-10-20T04:08:56.191Z,98781.53
2022-10-20T04:09:58.354Z,98785.00
2022-10-20T04:11:00.227Z,98783.16
2022-10-20T04:12:01.905Z,98791.09
2022-10-20T04:13:03.847Z,98791.91
2022-10-20T04:14:05.568Z,98796.41
2022-10-20T04:15:08.908Z,98790.06
2022-10-20T04:16:10.691Z,98780.50
2022-10-20T04:17:12.402Z,98786.63
2022-10-20T04:18:14.114Z,98778.47
2022-10-20T04:19:15.796Z,98787.22
2022-10-20T04:20:17.750Z,98785.59
2022-10-20T04:21:19.486Z,98790.69
2022-10-20T04:22:21.324Z,98792.31
2022-10-20T04:23:23.126Z,98787.00
2022-10-20T04:24:24.850Z,98787.00
2022-10-20T04:25:26.651Z,98798.41
2022-10-20T04:26:28.404Z,98788.63
2022-10-20T04:27:30.113Z,98796.38
2022-10-20T04:28:31.793Z,98791.88
2022-10-20T04:29:33.870Z,98786.59
2022-10-20T04:30:35.596Z,98782.09
2022-10-20T04:31:37.292Z,98779.66
2022-10-20T04:32:39.158Z,98780.47
2022-10-20T04:33:41.051Z,98781.28
2022-10-20T04:34:42.791Z,98791.88
2022-10-20T04:35:44.668Z,98791.88
2022-10-20T04:36:46.657Z,98792.69
2022-10-20T04:37:48.351Z,98791.69
2022-10-20T04:38:50.057Z,98791.88
2022-10-20T04:39:51.831Z,98789.22
2022-10-20T04:41:00.409Z,98789.06
2022-10-20T04:42:05.036Z,98783.75
2022-10-20T04:43:06.737Z,98780.25
2022-10-20T04:44:08.815Z,98787.00
2022-10-20T04:45:10.753Z,98787.00
2022-10-20T04:46:12.548Z,98783.53
2022-10-20T04:47:14.311Z,98784.34
2022-10-20T04:48:16.588Z,98793.13
2022-10-20T04:49:18.353Z,98788.84
2022-10-20T04:50:20.069Z,98790.47
2022-10-20T04:51:21.836Z,98793.13
2022-10-20T04:52:23.524Z,98789.44
2022-10-20T04:53:25.240Z,98787.59
2022-10-20T04:54:26.948Z,98783.13
2022-10-20T04:55:28.688Z,98780.47
2022-10-20T04:56:30.495Z,98775.97
2022-10-20T04:57:33.485Z,98772.53
2022-10-20T04:58:36.017Z,98777.81
2022-10-20T04:59:37.757Z,98769.06
2022-10-20T05:00:39.485Z,98768.25
2022-10-20T05:01:41.588Z,98774.16
2022-10-20T05:02:43.360Z,98770.09
2022-10-20T05:03:45.433Z,98775.16
2022-10-20T05:04:47.199Z,98777.81
2022-10-20T05:05:48.923Z,98773.53
2022-10-20T05:06:50.660Z,98769.88
2022-10-20T05:07:52.352Z,98767.22
2022-10-20T05:08:59.120Z,98760.09
2022-10-20T05:10:00.942Z,98760.09
2022-10-20T05:11:02.952Z,98753.97
2022-10-20T05:12:04.894Z,98760.09
2022-10-20T05:13:06.669Z,98753.97
2022-10-20T05:14:08.671Z,98755.00
2022-10-20T05:15:10.515Z,98756.63
2022-10-20T05:16:12.996Z,98756.63
2022-10-20T05:17:15.369Z,98749.50
2022-10-20T05:18:17.068Z,98755.59
2022-10-20T05:19:19.378Z,98749.50
2022-10-20T05:20:21.140Z,98750.31
2022-10-20T05:21:28.249Z,98750.91
2022-10-20T05:22:31.392Z,98745.59
2022-10-20T05:23:33.183Z,98739.50
2022-10-20T05:24:34.981Z,98741.31
2022-10-20T05:25:38.621Z,98736.84
2022-10-20T05:26:40.375Z,98742.13
2022-10-20T05:27:42.095Z,98740.31
2022-10-20T05:28:47.187Z,98739.28
2022-10-20T05:29:49.158Z,98743.75
2022-10-20T05:30:50.920Z,98736.84
2022-10-20T05:31:52.673Z,98733.38
2022-10-20T05:32:54.381Z,98744.78
2022-10-20T05:33:57.607Z,98743.56
2022-10-20T05:34:59.307Z,98744.56
2022-10-20T05:36:07.197Z,98741.53
2022-10-20T05:37:08.904Z,98742.56
2022-10-20T05:38:10.606Z,98745.22
2022-10-20T05:39:12.460Z,98743.56
2022-10-20T05:40:14.514Z,98743.38
2022-10-20T05:41:23.534Z,98738.25
2022-10-20T05:42:25.267Z,98738.25
2022-10-20T05:43:26.965Z,98734.78
2022-10-20T05:44:28.670Z,98735.81
2022-10-20T05:45:30.432Z,98735.81
2022-10-20T05:46:41.184Z,98728.69
2022-10-20T05:47:43.117Z,98728.91
2022-10-20T05:48:46.558Z,98726.25
2022-10-20T05:49:48.313Z,98722.78
2022-10-20T05:50:50.073Z,98716.47
2022-10-20T05:51:51.769Z,98716.47
2022-10-20T05:52:53.870Z,98726.44
2022-10-20T05:53:57.422Z,98714.84
2022-10-20T05:54:59.476Z,98717.47
2022-10-20T05:56:06.532Z,98718.88
2022-10-20T05:57:08.264Z,98710.34
2022-10-20T05:58:09.976Z,98719.09
2022-10-20T05:59:13.252Z,98712.41
2022-10-20T06:00:16.261Z,98715.84
2022-10-20T06:01:24.371Z,98710.94
2022-10-20T06:02:26.311Z,98709.53
2022-10-20T06:03:28.390Z,98712.19
2022-10-20T06:04:31.379Z,98709.53
2022-10-20T06:05:33.177Z,98709.75
2022-10-20T06:06:36.087Z,98711.38
2022-10-20T06:07:37.815Z,98707.09
2022-10-20T06:08:39.540Z,98703.41
2022-10-20T06:09:41.445Z,98708.50
2022-10-20T06:10:43.147Z,98709.31
2022-10-20T06:11:45.229Z,98714.63
2022-10-20T06:12:46.935Z,98699.75
2022-10-20T06:13:51.852Z,98702.19
2022-10-20T06:14:54.798Z,98701.16
2022-10-20T06:16:15.323Z,98703.81
2022-10-20T06:17:17.218Z,98705.47
2022-10-20T06:18:18.993Z,98707.47
2022-10-20T06:19:21.555Z,98704.84
2022-10-20T06:20:23.283Z,98711.75
2022-10-20T06:21:31.818Z,98716.66
2022-10-20T06:22:33.994Z,98712.16
2022-10-20T06:23:36.002Z,98718.50
2022-10-20T06:24:37.702Z,98727.47
2022-10-20T06:25:39.396Z,98727.25
2022-10-20T06:26:41.161Z,98741.09
2022-10-20T06:27:44.428Z,98730.50
2022-10-20T06:28:49.123Z,98736.41
2022-10-20T06:29:50.812Z,98739.06
2022-10-20T06:30:52.515Z,98735.59
2022-10-20T06:31:56.440Z,98736.41
2022-10-20T06:32:58.136Z,98742.53
2022-10-20T06:34:00.690Z,98743.31
2022-10-20T06:35:02.461Z,98739.66
2022-10-20T06:36:04.329Z,98738.63
2022-10-20T06:37:06.061Z,98738.63
2022-10-20T06:38:07.767Z,98737.59
2022-10-20T06:39:23.178Z,98736.59
2022-10-20T06:40:24.915Z,98737.59
2022-10-20T06:41:28.043Z,98742.72
2022-10-20T06:42:29.782Z,98746.19
2022-10-20T06:43:31.640Z,98752.50
2022-10-20T06:44:33.423Z,98751.47
2022-10-20T06:45:35.185Z,98745.16
2022-10-20T06:46:39.970Z,98744.94
2022-10-20T06:47:41.925Z,98746.78
2022-10-20T06:48:45.028Z,98740.47
2022-10-20T06:49:48.761Z,98742.09
2022-10-20T06:50:56.629Z,98741.66
2022-10-20T06:51:58.439Z,98740.03
2022-10-20T06:53:00.226Z,98746.94
2022-10-20T06:54:02.699Z,98742.47
2022-10-20T06:55:04.819Z,98743.28
2022-10-20T06:56:11.786Z,98746.34
2022-10-20T06:57:13.483Z,98737.56
2022-10-20T06:58:15.183Z,98741.63
2022-10-20T06:59:16.899Z,98734.72
2022-10-20T07:00:18.727Z,98730.22
2022-10-20T07:01:25.819Z,98731.63
2022-10-20T07:02:27.597Z,98732.66
2022-10-20T07:03:31.079Z,98734.28
2022-10-20T07:04:32.822Z,98741.41
2022-10-20T07:05:35.977Z,98739.16
2022-10-20T07:06:41.380Z,98732.00
2022-10-20T07:07:43.150Z,98741.41
2022-10-20T07:08:46.642Z,98744.88
2022-10-20T07:09:48.423Z,98742.81
2022-10-20T07:11:13.482Z,98749.09
2022-10-20T07:12:15.337Z,98746.66
2022-10-20T07:13:17.065Z,98753.41
2022-10-20T07:14:19.561Z,98742.63
2022-10-20T07:15:21.598Z,98740.56
2022-10-20T07:16:26.479Z,98747.28
2022-10-20T07:17:28.306Z,98750.53
2022-10-20T07:18:31.095Z,98746.03
2022-10-20T07:19:33.271Z,98746.44
2022-10-20T07:20:35.032Z,98738.66
2022-10-20T07:21:38.338Z,98737.22
2022-10-20T07:22:42.049Z,98738.63
2022-10-20T07:23:44.583Z,98741.88
2022-10-20T07:24:46.304Z,98748.00
2022-10-20T07:25:48.115Z,98745.75
2022-10-20T07:26:49.840Z,98764.13
2022-10-20T07:27:51.593Z,98759.41
2022-10-20T07:28:57.745Z,98752.03
2022-10-20T07:29:59.507Z,98749.97
2022-10-20T07:31:08.230Z,98751.78
2022-10-20T07:32:09.991Z,98739.56
2022-10-20T07:33:11.724Z,98743.41
2022-10-20T07:34:26.745Z,98735.84
2022-10-20T07:35:30.683Z,98736.44
2022-10-20T07:36:35.945Z,98751.69
2022-10-20T07:37:38.351Z,98747.81
2022-10-20T07:38:40.560Z,98751.66
2022-10-20T07:39:42.402Z,98753.06
2022-10-20T07:40:44.132Z,98757.94
2022-10-20T07:41:47.621Z,98754.88
2022-10-20T07:42:49.422Z,98759.75
2022-10-20T07:43:51.895Z,98749.50
2022-10-20T07:44:53.604Z,98750.09
2022-10-20T07:45:55.358Z,98750.28
2022-10-20T07:46:57.078Z,98737.59
2022-10-20T07:47:59.399Z,98747.78
2022-10-20T07:49:23.887Z,98748.16
2022-10-20T07:50:23.496Z,98740.56
2022-10-20T07:51:31.563Z,98740.75
2022-10-20T07:52:33.500Z,98739.72
2022-10-20T07:53:35.407Z,98743.00
2022-10-20T07:54:37.211Z,98742.78
2022-10-20T07:55:39.451Z,98752.13
2022-10-20T07:56:45.984Z,98751.69
2022-10-20T07:57:48.477Z,98749.66
2022-10-20T07:58:50.473Z,98754.75
2022-10-20T07:59:52.308Z,98743.09
2022-10-20T08:00:54.008Z,98747.16
2022-10-20T08:01:56.285Z,98745.88
2022-10-20T08:03:00.400Z,98752.59
2022-10-20T08:04:02.253Z,98745.47
2022-10-20T08:05:04.325Z,98753.00
2022-10-20T08:06:06.853Z,98754.16
2022-10-20T08:07:08.555Z,98754.16
2022-10-20T08:08:10.275Z,98757.63
2022-10-20T08:09:12.066Z,98748.41
2022-10-20T08:10:13.861Z,98745.75
2022-10-20T08:11:15.804Z,98745.56
2022-10-20T08:12:17.792Z,98745.69
2022-10-20T08:13:19.698Z,98745.47
2022-10-20T08:14:21.412Z,98740.53
2022-10-20T08:15:41.905Z,98730.50
2022-10-20T08:16:46.456Z,98737.81
2022-10-20T08:17:48.239Z,98740.00
2022-10-20T08:19:02.821Z,98739.59
2022-10-20T08:20:19.613Z,98742.38
2022-10-20T08:21:23.596Z,98747.84
2022-10-20T08:22:25.394Z,98738.63
2022-10-20T08:23:27.108Z,98733.66
2022-10-20T08:24:28.850Z,98730.53
2022-10-20T08:25:30.568Z,98728.84
2022-10-20T08:26:32.293Z,98727.59
2022-10-20T08:27:34.092Z,98717.94
2022-10-20T08:28:36.325Z,98721.78
2022-10-20T08:29:38.328Z,98718.47
2022-10-20T08:30:40.156Z,98725.97
2022-10-20T08:31:44.520Z,98727.94
2022-10-20T08:32:50.346Z,98727.28
2022-10-20T08:33:53.237Z,98718.63
2022-10-20T08:34:55.114Z,98720.81
2022-10-20T08:36:11.504Z,98715.06
2022-10-20T08:37:13.286Z,98699.47
2022-10-20T08:38:15.026Z,98704.53
2022-10-20T08:39:16.772Z,98697.72
2022-10-20T08:40:25.169Z,98698.91
2022-10-20T08:41:43.473Z,98695.56
2022-10-20T08:42:56.376Z,98687.34
2022-10-20T08:43:58.597Z,98695.13
2022-10-20T08:45:00.674Z,98696.50
2022-10-20T08:46:02.567Z,98708.53
2022-10-20T08:47:20.809Z,98707.63
2022-10-20T08:48:28.835Z,98710.88
2022-10-20T08:49:35.150Z,98709.38
2022-10-20T08:50:39.656Z,98711.81
2022-10-20T08:51:42.654Z,98704.38
2022-10-20T08:52:47.554Z,98705.81
2022-10-20T08:53:55.487Z,98698.38
2022-10-20T08:54:58.849Z,98701.63
2022-10-20T08:56:00.614Z,98700.34
2022-10-20T08:57:02.405Z,98702.38
2022-10-20T08:58:15.885Z,98710.47
2022-10-20T08:59:34.682Z,98699.94
2022-10-20T09:00:39.413Z,98698.34
2022-10-20T09:01:41.229Z,98705.84
2022-10-20T09:02:43.348Z,98707.47
2022-10-20T09:03:45.463Z,98713.94
2022-10-20T09:04:58.448Z,98725.22
2022-10-20T09:06:16.811Z,98727.41
2022-10-20T09:07:24.243Z,98727.16
2022-10-20T09:08:30.862Z,98716.28
2022-10-20T09:09:33.780Z,98726.47
2022-10-20T09:10:39.626Z,98727.88
2022-10-20T09:11:42.224Z,98721.25
2022-10-20T09:12:48.110Z,98722.97
2022-10-20T09:13:50.236Z,98716.16
2022-10-20T09:14:51.993Z,98714.88
2022-10-20T09:16:04.664Z,98713.72
2022-10-20T09:17:17.131Z,98723.44
2022-10-20T09:18:20.469Z,98717.66
2022-10-20T09:19:23.450Z,98716.38
2022-10-20T09:20:30.044Z,98726.31
2022-10-20T09:21:35.809Z,98727.50
2022-10-20T09:22:37.880Z,98722.38
2022-10-20T09:23:43.784Z,98728.41
2022-10-20T09:24:47.044Z,98726.09
2022-10-20T09:25:51.509Z,98720.88
2022-10-20T09:26:58.647Z,98724.22
2022-10-20T09:28:01.616Z,98720.59
2022-10-20T09:29:14.386Z,98715.47
2022-10-20T09:30:35.194Z,98719.72
2022-10-20T09:31:45.867Z,98712.94
2022-10-20T09:32:48.882Z,98717.91
2022-10-20T09:33:50.656Z,98710.53
2022-10-20T09:35:12.275Z,98707.13
2022-10-20T09:36:19.846Z,98713.47
2022-10-20T09:37:21.666Z,98713.38
2022-10-20T09:38:29.758Z,98720.00
2022-10-20T09:39:55.736Z,98726.66
2022-10-20T09:41:20.806Z,98730.69
2022-10-20T09:42:31.529Z,98731.50
2022-10-20T09:43:33.549Z,98719.59
2022-10-20T09:44:58.778Z,98719.03
2022-10-20T09:46:07.449Z,98721.09
2022-10-20T09:47:15.834Z,98724.44
2022-10-20T09:48:36.722Z,98718.28
2022-10-20T09:49:39.519Z,98721.38
2022-10-20T09:50:48.139Z,98721.63
2022-10-20T09:52:56.464Z,98719.69
2022-10-20T09:54:06.667Z,98721.94
2022-10-20T09:55:24.727Z,98729.06
2022-10-20T09:56:35.399Z,98733.41
2022-10-20T09:57:37.183Z,98730.50
2022-10-20T09:58:39.649Z,98733.81
2022-10-20T09:59:46.915Z,98726.63
2022-10-20T10:01:22.413Z,98714.66
2022-10-20T10:02:24.091Z,98716.81
2022-10-20T10:03:26.241Z,98720.03
2022-10-20T10:04:42.240Z,98713.09
2022-10-20T10:05:44.062Z,98712.53
2022-10-20T10:06:46.184Z,98716.03
2022-10-20T10:07:59.771Z,98725.94
2022-10-20T10:09:02.598Z,98724.59
2022-10-20T10:10:17.964Z,98713.53
2022-10-20T10:11:25.694Z,98711.63
2022-10-20T10:12:30.626Z,98716.19
2022-10-20T10:13:45.522Z,98716.47
2022-10-20T10:14:54.345Z,98717.03
2022-10-20T10:16:11.697Z,98722.94
2022-10-20T10:17:40.929Z,98729.75
2022-10-20T10:19:01.668Z,98724.38
2022-10-20T10:20:11.459Z,98730.84
2022-10-20T10:21:17.260Z,98736.72
2022-10-20T10:22:19.869Z,98722.97
2022-10-20T10:23:26.782Z,98725.38
2022-10-20T10:24:48.237Z,98725.63
2022-10-20T10:25:51.308Z,98727.97
2022-10-20T10:26:55.606Z,98729.53
2022-10-20T10:28:06.864Z,98725.19
2022-10-20T10:29:38.153Z,98716.28
2022-10-20T10:30:39.884Z,98709.53
2022-10-20T10:32:13.775Z,98702.97
2022-10-20T10:33:28.075Z,98711.72
2022-10-20T10:34:54.580Z,98704.41
2022-10-20T10:35:57.213Z,98700.84
2022-10-20T10:36:59.613Z,98700.50
2022-10-20T10:38:01.784Z,98700.72
2022-10-20T10:39:11.778Z,98698.00
2022-10-20T10:40:18.716Z,98715.16
2022-10-20T10:41:42.203Z,98715.72
2022-10-20T10:43:01.382Z,98719.78
2022-10-20T10:44:21.151Z,98709.44
2022-10-20T10:45:48.418Z,98717.16
2022-10-20T10:47:18.511Z,98720.31
2022-10-20T10:49:16.267Z,98725.28
2022-10-20T10:51:00.186Z,98721.63
2022-10-20T10:52:43.175Z,98718.69
2022-10-20T10:54:29.243Z,98708.50
2022-10-20T10:56:10.508Z,98708.50
2022-10-20T10:57:32.219Z,98698.81
2022-10-20T10:58:54.521Z,98692.34
2022-10-20T11:00:02.386Z,98693.97
2022-10-20T11:01:22.535Z,98689.63
2022-10-20T11:02:48.421Z,98687.16
2022-10-20T11:04:32.971Z,98694.13
2022-10-20T11:05:46.571Z,98701.03
2022-10-20T11:07:07.415Z,98690.81
2022-10-20T11:09:00.792Z,98688.38
2022-10-20T11:10:20.930Z,98676.34
2022-10-20T11:11:52.278Z,98675.53
2022-10-20T11:13:30.478Z,98673.72
2022-10-20T11:15:28.728Z,98668.38
2022-10-20T11:16:58.570Z,98666.22
2022-10-20T11:18:36.899Z,98664.34
2022-10-20T11:20:10.008Z,98659.22
2022-10-20T11:23:11.612Z,98661.53
2022-10-20T11:24:34.779Z,98669.00
2022-10-20T11:25:44.527Z,98667.31
2022-10-20T11:26:52.079Z,98660.84
2022-10-20T11:27:57.444Z,98656.75
2022-10-20T11:29:02.608Z,98657.00
2022-10-20T11:30:15.576Z,98650.81
2022-10-20T11:31:26.555Z,98643.25
2022-10-20T11:33:56.616Z,98647.16
2022-10-20T11:35:25.043Z,98647.91
2022-10-20T11:36:35.726Z,98648.59
2022-10-20T11:38:31.350Z,98655.22
2022-10-20T11:39:57.190Z,98656.22
2022-10-20T11:41:43.517Z,98656.13
2022-10-20T11:43:08.697Z,98666.53
2022-10-20T11:44:37.027Z,98655.94
2022-10-20T11:45:50.908Z,98646.53
2022-10-20T11:47:02.998Z,98643.22
2022-10-20T11:48:39.114Z,98637.81
2022-10-20T11:49:41.711Z,98640.66
2022-10-20T11:50:58.393Z,98641.44
2022-10-20T11:52:55.524Z,98630.13
2022-10-20T11:54:05.961Z,98637.78
2022-10-20T11:55:39.265Z,98635.84
2022-10-20T11:57:11.394Z,98626.16
2022-10-20T11:58:21.976Z,98624.97
2022-10-20T11:59:54.767Z,98627.34
2022-10-20T12:01:15.202Z,98616.81
2022-10-20T12:02:38.128Z,98626.41
2022-10-20T12:04:02.413Z,98619.16
2022-10-20T12:05:46.134Z,98623.34
2022-10-20T12:07:20.902Z,98620.84
2022-10-20T12:09:13.851Z,98621.81
2022-10-20T12:10:24.479Z,98613.97
2022-10-20T12:12:00.126Z,98607.28
2022-10-20T12:13:49.571Z,98600.00
2022-10-20T12:15:02.158Z,98612.22
2022-10-20T12:16:04.259Z,98616.47
2022-10-20T12:17:19.727Z,98616.22
2022-10-20T12:18:35.826Z,98606.81
2022-10-20T12:19:37.645Z,98608.13
2022-10-20T12:20:39.337Z,98604.06
2022-10-20T12:22:04.929Z,98610.81
2022-10-20T12:23:06.792Z,98609.66
2022-10-20T12:24:52.373Z,98608.84
2022-10-20T12:25:54.103Z,98611.22
2022-10-20T12:27:10.649Z,98612.03
2022-10-20T12:28:22.532Z,98610.66
2022-10-20T12:29:33.370Z,98628.81
2022-10-20T12:30:37.811Z,98622.88
2022-10-20T12:32:28.993Z,98622.88
2022-10-20T12:33:51.792Z,98622.56
2022-10-20T12:35:16.482Z,98622.81
2022-10-20T12:36:18.097Z,98625.16
2022-10-20T12:37:34.951Z,98628.41
2022-10-20T12:38:37.110Z,98625.38
2022-10-20T12:39:40.037Z,98623.78
2022-10-20T12:40:51.467Z,98615.50
2022-10-20T12:42:05.105Z,98616.34
2022-10-20T12:43:24.486Z,98604.28
2022-10-20T12:44:32.148Z,98608.00
2022-10-20T12:45:44.270Z,98611.47
2022-10-20T12:46:57.945Z,98620.28
2022-10-20T12:48:02.700Z,98628.56
2022-10-20T12:49:12.885Z,98629.13
2022-10-20T12:50:46.855Z,98617.38
2022-10-20T12:51:55.044Z,98620.53
2022-10-20T12:53:17.998Z,98622.16
2022-10-20T12:54:36.316Z,98621.59
2022-10-20T12:55:42.036Z,98614.88
2022-10-20T12:56:45.094Z,98614.88
2022-10-20T12:57:47.556Z,98614.09
2022-10-20T12:59:20.547Z,98603.97
2022-10-20T13:00:23.251Z,98605.50
2022-10-20T13:01:25.301Z,98618.88
2022-10-20T13:02:26.936Z,98638.63
2022-10-20T13:03:48.968Z,98640.78
2022-10-20T13:05:41.919Z,98644.50
2022-10-20T13:06:43.967Z,98638.28
2022-10-20T13:07:48.549Z,98632.69
2022-10-20T13:09:10.234Z,98630.00
2022-10-20T13:10:27.394Z,98624.91
2022-10-20T13:11:38.254Z,98620.63
2022-10-20T13:12:40.300Z,98614.47
2022-10-20T13:13:59.998Z,98619.00
2022-10-20T13:15:13.898Z,98617.41
2022-10-20T13:16:22.572Z,98609.63
2022-10-20T13:18:01.039Z,98616.59
2022-10-20T13:19:09.355Z,98617.66
2022-10-20T13:20:53.592Z,98614.13
2022-10-20T13:21:56.421Z,98600.22
2022-10-20T13:24:14.002Z,98588.72
2022-10-20T13:25:45.955Z,98586.88
2022-10-20T13:27:02.927Z,98581.75
2022-10-20T13:28:18.329Z,98570.50
2022-10-20T13:29:25.857Z,98580.13
2022-10-20T13:30:27.775Z,98576.91